sensor_id;sensor_type;location;lat;lon;timestamp;temperature;humidity
25718;DHT22;13574;52.040;5.692;2023-04-09T00:01:48;13.90;99.90
25718;DHT22;13574;52.040;5.692;2023-04-09T00:04:14;13.80;99.90
25718;DHT22;13574;52.040;5.692;2023-04-09T00:06:39;13.90;99.90
25718;DHT22;13574;52.040;5.692;2023-04-09T00:09:05;13.90;99.90
25718;DHT22;13574;52.040;5.692;2023-04-09T00:11:31;14.10;99.90
25718;DHT22;13574;52.040;5.692;2023-04-09T00:13:57;14.20;99.90
25718;DHT22;13574;52.040;5.692;2023-04-09T00:16:23;14.10;99.90
25718;DHT22;13574;52.040;5.692;2023-04-09T00:18:48;14.00;99.90
25718;DHT22;13574;52.040;5.692;2023-04-09T00:21:14;14.00;99.90
25718;DHT22;13574;52.040;5.692;2023-04-09T00:23:41;14.00;99.90
25718;DHT22;13574;52.040;5.692;2023-04-09T00:26:06;14.00;99.90
25718;DHT22;13574;52.040;5.692;2023-04-09T00:28:32;13.90;99.90
25718;DHT22;13574;52.040;5.692;2023-04-09T00:30:58;13.90;99.90
25718;DHT22;13574;52.040;5.692;2023-04-09T00:33:24;13.90;99.90
25718;DHT22;13574;52.040;5.692;2023-04-09T00:35:50;14.00;99.90
25718;DHT22;13574;52.040;5.692;2023-04-09T00:38:15;14.10;99.90
25718;DHT22;13574;52.040;5.692;2023-04-09T00:40:41;14.10;99.90
25718;DHT22;13574;52.040;5.692;2023-04-09T00:43:07;14.10;99.90
25718;DHT22;13574;52.040;5.692;2023-04-09T00:45:32;14.20;99.90
25718;DHT22;13574;52.040;5.692;2023-04-09T00:47:58;14.30;99.90
25718;DHT22;13574;52.040;5.692;2023-04-09T00:50:24;14.00;99.90
25718;DHT22;13574;52.040;5.692;2023-04-09T00:52:50;14.00;99.90
25718;DHT22;13574;52.040;5.692;2023-04-09T00:55:17;14.10;99.90
25718;DHT22;13574;52.040;5.692;2023-04-09T00:57:43;14.30;99.90
25718;DHT22;13574;52.040;5.692;2023-04-09T01:00:09;14.40;99.90
25718;DHT22;13574;52.040;5.692;2023-04-09T01:02:36;14.10;99.90
25718;DHT22;13574;52.040;5.692;2023-04-09T01:05:02;14.20;99.90
25718;DHT22;13574;52.040;5.692;2023-04-09T01:07:49;14.20;99.90
25718;DHT22;13574;52.040;5.692;2023-04-09T01:10:34;14.30;99.90
25718;DHT22;13574;52.040;5.692;2023-04-09T01:13:15;14.10;99.90
25718;DHT22;13574;52.040;5.692;2023-04-09T01:15:51;14.40;99.90
25718;DHT22;13574;52.040;5.692;2023-04-09T01:21:16;14.00;99.90
25718;DHT22;13574;52.040;5.692;2023-04-09T01:26:54;14.20;99.90
25718;DHT22;13574;52.040;5.692;2023-04-09T01:29:22;14.10;99.90
25718;DHT22;13574;52.040;5.692;2023-04-09T01:31:51;14.00;99.90
25718;DHT22;13574;52.040;5.692;2023-04-09T01:34:19;14.20;99.90
25718;DHT22;13574;52.040;5.692;2023-04-09T01:36:52;14.00;99.90
25718;DHT22;13574;52.040;5.692;2023-04-09T01:39:20;14.30;99.90
25718;DHT22;13574;52.040;5.692;2023-04-09T01:41:47;14.20;99.90
25718;DHT22;13574;52.040;5.692;2023-04-09T01:44:13;14.30;99.90
25718;DHT22;13574;52.040;5.692;2023-04-09T01:46:40;14.40;99.90
25718;DHT22;13574;52.040;5.692;2023-04-09T01:49:06;14.10;99.90
25718;DHT22;13574;52.040;5.692;2023-04-09T01:51:33;13.90;99.90
25718;DHT22;13574;52.040;5.692;2023-04-09T01:53:59;14.00;99.90
25718;DHT22;13574;52.040;5.692;2023-04-09T01:56:25;14.10;99.90
25718;DHT22;13574;52.040;5.692;2023-04-09T01:58:51;14.30;99.90
25718;DHT22;13574;52.040;5.692;2023-04-09T02:03:59;14.50;99.90
25718;DHT22;13574;52.040;5.692;2023-04-09T02:09:00;14.30;99.90
25718;DHT22;13574;52.040;5.692;2023-04-09T02:11:28;14.30;99.90
25718;DHT22;13574;52.040;5.692;2023-04-09T02:13:54;14.20;99.90
25718;DHT22;13574;52.040;5.692;2023-04-09T02:16:21;14.20;99.90
25718;DHT22;13574;52.040;5.692;2023-04-09T02:18:52;14.30;99.90
25718;DHT22;13574;52.040;5.692;2023-04-09T02:21:18;14.30;99.90
25718;DHT22;13574;52.040;5.692;2023-04-09T02:23:44;14.10;99.90
25718;DHT22;13574;52.040;5.692;2023-04-09T02:26:10;14.00;99.90
25718;DHT22;13574;52.040;5.692;2023-04-09T02:28:35;14.00;99.90
25718;DHT22;13574;52.040;5.692;2023-04-09T02:31:01;13.90;99.90
25718;DHT22;13574;52.040;5.692;2023-04-09T02:33:27;14.00;99.90
25718;DHT22;13574;52.040;5.692;2023-04-09T02:35:52;13.70;99.90
25718;DHT22;13574;52.040;5.692;2023-04-09T02:38:18;13.80;99.90
25718;DHT22;13574;52.040;5.692;2023-04-09T02:40:44;13.90;99.90
25718;DHT22;13574;52.040;5.692;2023-04-09T02:43:09;14.20;99.90
25718;DHT22;13574;52.040;5.692;2023-04-09T02:45:35;14.20;99.90
25718;DHT22;13574;52.040;5.692;2023-04-09T02:48:01;14.10;99.90
25718;DHT22;13574;52.040;5.692;2023-04-09T02:50:27;14.10;99.90
25718;DHT22;13574;52.040;5.692;2023-04-09T02:52:52;14.20;99.90
25718;DHT22;13574;52.040;5.692;2023-04-09T02:55:19;14.30;99.90
25718;DHT22;13574;52.040;5.692;2023-04-09T02:57:45;14.10;99.90
25718;DHT22;13574;52.040;5.692;2023-04-09T03:00:11;14.00;99.90
25718;DHT22;13574;52.040;5.692;2023-04-09T03:02:37;14.10;99.90
25718;DHT22;13574;52.040;5.692;2023-04-09T03:05:03;14.20;99.90
25718;DHT22;13574;52.040;5.692;2023-04-09T03:07:29;14.20;99.90
25718;DHT22;13574;52.040;5.692;2023-04-09T03:09:55;14.20;99.90
25718;DHT22;13574;52.040;5.692;2023-04-09T03:12:21;14.10;99.90
25718;DHT22;13574;52.040;5.692;2023-04-09T03:14:46;14.20;99.90
25718;DHT22;13574;52.040;5.692;2023-04-09T03:17:12;14.30;99.90
25718;DHT22;13574;52.040;5.692;2023-04-09T03:19:38;14.40;99.90
25718;DHT22;13574;52.040;5.692;2023-04-09T03:22:03;14.40;99.90
25718;DHT22;13574;52.040;5.692;2023-04-09T03:24:31;14.50;99.90
25718;DHT22;13574;52.040;5.692;2023-04-09T03:26:57;14.40;99.90
25718;DHT22;13574;52.040;5.692;2023-04-09T03:29:22;14.60;99.90
25718;DHT22;13574;52.040;5.692;2023-04-09T03:31:48;14.70;99.90
25718;DHT22;13574;52.040;5.692;2023-04-09T03:34:14;14.50;99.90
25718;DHT22;13574;52.040;5.692;2023-04-09T03:36:39;14.40;99.90
25718;DHT22;13574;52.040;5.692;2023-04-09T03:39:05;14.20;99.90
25718;DHT22;13574;52.040;5.692;2023-04-09T03:41:31;14.20;99.90
25718;DHT22;13574;52.040;5.692;2023-04-09T03:43:56;14.20;99.90
25718;DHT22;13574;52.040;5.692;2023-04-09T03:46:22;14.10;99.90
25718;DHT22;13574;52.040;5.692;2023-04-09T03:48:48;14.00;99.90
25718;DHT22;13574;52.040;5.692;2023-04-09T03:51:14;14.00;99.90
25718;DHT22;13574;52.040;5.692;2023-04-09T03:53:41;14.00;99.90
25718;DHT22;13574;52.040;5.692;2023-04-09T03:56:07;14.00;99.90
25718;DHT22;13574;52.040;5.692;2023-04-09T03:58:33;13.90;99.90
25718;DHT22;13574;52.040;5.692;2023-04-09T04:00:59;14.00;99.90
25718;DHT22;13574;52.040;5.692;2023-04-09T04:03:25;14.20;99.90
25718;DHT22;13574;52.040;5.692;2023-04-09T04:05:51;14.30;99.90
25718;DHT22;13574;52.040;5.692;2023-04-09T04:08:16;14.10;99.90
25718;DHT22;13574;52.040;5.692;2023-04-09T04:10:42;14.10;99.90
25718;DHT22;13574;52.040;5.692;2023-04-09T04:13:08;14.20;99.90
25718;DHT22;13574;52.040;5.692;2023-04-09T04:15:40;14.20;99.90
25718;DHT22;13574;52.040;5.692;2023-04-09T04:18:09;14.30;99.90
25718;DHT22;13574;52.040;5.692;2023-04-09T04:20:36;14.40;99.90
25718;DHT22;13574;52.040;5.692;2023-04-09T04:23:03;14.40;99.90
25718;DHT22;13574;52.040;5.692;2023-04-09T04:25:29;14.20;99.90
25718;DHT22;13574;52.040;5.692;2023-04-09T04:27:55;14.30;99.90
25718;DHT22;13574;52.040;5.692;2023-04-09T04:30:21;14.20;99.90
25718;DHT22;13574;52.040;5.692;2023-04-09T04:32:47;14.20;99.90
25718;DHT22;13574;52.040;5.692;2023-04-09T04:35:13;14.30;99.90
25718;DHT22;13574;52.040;5.692;2023-04-09T04:37:39;14.30;99.90
25718;DHT22;13574;52.040;5.692;2023-04-09T04:40:08;14.20;99.90
25718;DHT22;13574;52.040;5.692;2023-04-09T04:42:34;14.10;99.90
25718;DHT22;13574;52.040;5.692;2023-04-09T04:45:00;14.30;99.90
25718;DHT22;13574;52.040;5.692;2023-04-09T04:47:26;14.20;99.90
25718;DHT22;13574;52.040;5.692;2023-04-09T04:49:52;14.00;99.90
25718;DHT22;13574;52.040;5.692;2023-04-09T04:52:17;13.80;99.90
25718;DHT22;13574;52.040;5.692;2023-04-09T04:54:43;13.70;99.90
25718;DHT22;13574;52.040;5.692;2023-04-09T04:57:09;13.70;99.90
25718;DHT22;13574;52.040;5.692;2023-04-09T04:59:38;13.90;99.90
25718;DHT22;13574;52.040;5.692;2023-04-09T05:02:05;14.00;99.90
25718;DHT22;13574;52.040;5.692;2023-04-09T05:04:31;13.90;99.90
25718;DHT22;13574;52.040;5.692;2023-04-09T05:06:56;13.80;99.90
25718;DHT22;13574;52.040;5.692;2023-04-09T05:09:22;13.70;99.90
25718;DHT22;13574;52.040;5.692;2023-04-09T05:11:48;13.50;99.90
25718;DHT22;13574;52.040;5.692;2023-04-09T05:14:13;13.40;99.90
25718;DHT22;13574;52.040;5.692;2023-04-09T05:16:39;13.30;99.90
25718;DHT22;13574;52.040;5.692;2023-04-09T05:19:05;13.30;99.90
25718;DHT22;13574;52.040;5.692;2023-04-09T05:21:31;13.30;99.90
25718;DHT22;13574;52.040;5.692;2023-04-09T05:23:56;13.30;99.90
25718;DHT22;13574;52.040;5.692;2023-04-09T05:26:22;13.10;99.90
25718;DHT22;13574;52.040;5.692;2023-04-09T05:28:48;12.90;99.90
25718;DHT22;13574;52.040;5.692;2023-04-09T05:31:14;13.10;99.90
25718;DHT22;13574;52.040;5.692;2023-04-09T05:33:41;13.20;99.90
25718;DHT22;13574;52.040;5.692;2023-04-09T05:36:13;13.20;99.90
25718;DHT22;13574;52.040;5.692;2023-04-09T05:38:39;13.10;99.90
25718;DHT22;13574;52.040;5.692;2023-04-09T05:41:05;13.30;99.90
25718;DHT22;13574;52.040;5.692;2023-04-09T05:43:31;13.30;99.90
25718;DHT22;13574;52.040;5.692;2023-04-09T05:45:56;13.50;99.90
25718;DHT22;13574;52.040;5.692;2023-04-09T05:48:22;13.50;99.90
25718;DHT22;13574;52.040;5.692;2023-04-09T05:50:49;13.40;99.90
25718;DHT22;13574;52.040;5.692;2023-04-09T05:53:17;13.20;99.90
25718;DHT22;13574;52.040;5.692;2023-04-09T05:55:43;13.10;99.90
25718;DHT22;13574;52.040;5.692;2023-04-09T05:58:09;13.00;99.90
25718;DHT22;13574;52.040;5.692;2023-04-09T06:00:34;12.90;99.90
25718;DHT22;13574;52.040;5.692;2023-04-09T06:03:00;12.70;99.90
25718;DHT22;13574;52.040;5.692;2023-04-09T06:05:26;12.60;99.90
25718;DHT22;13574;52.040;5.692;2023-04-09T06:07:52;12.60;99.90
25718;DHT22;13574;52.040;5.692;2023-04-09T06:10:18;12.40;99.90
25718;DHT22;13574;52.040;5.692;2023-04-09T06:12:44;12.30;99.90
25718;DHT22;13574;52.040;5.692;2023-04-09T06:15:10;12.30;99.90
25718;DHT22;13574;52.040;5.692;2023-04-09T06:17:35;11.90;99.90
25718;DHT22;13574;52.040;5.692;2023-04-09T06:20:01;11.80;99.90
25718;DHT22;13574;52.040;5.692;2023-04-09T06:22:27;11.90;99.90
25718;DHT22;13574;52.040;5.692;2023-04-09T06:24:53;12.00;99.90
25718;DHT22;13574;52.040;5.692;2023-04-09T06:27:18;12.30;99.90
25718;DHT22;13574;52.040;5.692;2023-04-09T06:29:46;12.60;99.90
25718;DHT22;13574;52.040;5.692;2023-04-09T06:32:11;12.60;99.90
25718;DHT22;13574;52.040;5.692;2023-04-09T06:34:37;12.60;99.90
25718;DHT22;13574;52.040;5.692;2023-04-09T06:37:03;12.50;99.90
25718;DHT22;13574;52.040;5.692;2023-04-09T06:39:28;12.40;99.90
25718;DHT22;13574;52.040;5.692;2023-04-09T06:41:54;12.50;99.90
25718;DHT22;13574;52.040;5.692;2023-04-09T06:44:20;12.50;99.90
25718;DHT22;13574;52.040;5.692;2023-04-09T06:46:46;12.70;99.90
25718;DHT22;13574;52.040;5.692;2023-04-09T06:49:11;12.50;99.90
25718;DHT22;13574;52.040;5.692;2023-04-09T06:51:37;12.20;99.90
25718;DHT22;13574;52.040;5.692;2023-04-09T06:54:03;11.90;99.90
25718;DHT22;13574;52.040;5.692;2023-04-09T06:56:28;12.00;99.90
25718;DHT22;13574;52.040;5.692;2023-04-09T06:58:54;12.00;99.90
25718;DHT22;13574;52.040;5.692;2023-04-09T07:01:20;12.10;99.90
25718;DHT22;13574;52.040;5.692;2023-04-09T07:03:46;12.20;99.90
25718;DHT22;13574;52.040;5.692;2023-04-09T07:06:11;12.20;99.90
25718;DHT22;13574;52.040;5.692;2023-04-09T07:08:37;12.30;99.90
25718;DHT22;13574;52.040;5.692;2023-04-09T07:11:03;12.60;99.90
25718;DHT22;13574;52.040;5.692;2023-04-09T07:13:28;12.80;99.90
25718;DHT22;13574;52.040;5.692;2023-04-09T07:15:55;12.90;99.90
25718;DHT22;13574;52.040;5.692;2023-04-09T07:18:21;13.10;99.90
25718;DHT22;13574;52.040;5.692;2023-04-09T07:20:46;13.10;99.90
25718;DHT22;13574;52.040;5.692;2023-04-09T07:23:12;13.50;99.90
25718;DHT22;13574;52.040;5.692;2023-04-09T07:25:38;13.70;99.90
25718;DHT22;13574;52.040;5.692;2023-04-09T07:28:03;13.90;99.90
25718;DHT22;13574;52.040;5.692;2023-04-09T07:30:29;13.80;99.90
25718;DHT22;13574;52.040;5.692;2023-04-09T07:32:55;13.80;99.90
25718;DHT22;13574;52.040;5.692;2023-04-09T07:35:20;13.80;99.90
25718;DHT22;13574;52.040;5.692;2023-04-09T07:37:46;13.90;99.90
25718;DHT22;13574;52.040;5.692;2023-04-09T07:40:12;14.20;99.90
25718;DHT22;13574;52.040;5.692;2023-04-09T07:42:38;14.50;99.90
25718;DHT22;13574;52.040;5.692;2023-04-09T07:45:04;14.50;99.90
25718;DHT22;13574;52.040;5.692;2023-04-09T07:47:30;14.50;99.90
25718;DHT22;13574;52.040;5.692;2023-04-09T07:49:57;14.70;99.90
25718;DHT22;13574;52.040;5.692;2023-04-09T07:52:23;14.90;99.90
25718;DHT22;13574;52.040;5.692;2023-04-09T07:54:49;15.00;99.90
25718;DHT22;13574;52.040;5.692;2023-04-09T07:57:14;15.20;99.90
25718;DHT22;13574;52.040;5.692;2023-04-09T07:59:40;15.40;99.90
25718;DHT22;13574;52.040;5.692;2023-04-09T08:02:06;15.40;99.90
25718;DHT22;13574;52.040;5.692;2023-04-09T08:04:32;15.60;99.90
25718;DHT22;13574;52.040;5.692;2023-04-09T08:06:58;16.10;99.90
25718;DHT22;13574;52.040;5.692;2023-04-09T08:09:23;17.20;99.90
25718;DHT22;13574;52.040;5.692;2023-04-09T08:11:49;17.60;99.90
25718;DHT22;13574;52.040;5.692;2023-04-09T08:14:16;18.60;99.20
25718;DHT22;13574;52.040;5.692;2023-04-09T08:16:46;19.00;97.60
25718;DHT22;13574;52.040;5.692;2023-04-09T08:19:15;19.60;97.70
25718;DHT22;13574;52.040;5.692;2023-04-09T08:21:42;21.40;96.90
25718;DHT22;13574;52.040;5.692;2023-04-09T08:24:09;23.80;93.80
25718;DHT22;13574;52.040;5.692;2023-04-09T08:26:39;25.90;90.80
25718;DHT22;13574;52.040;5.692;2023-04-09T08:29:06;26.20;86.30
25718;DHT22;13574;52.040;5.692;2023-04-09T08:31:32;24.80;88.10
25718;DHT22;13574;52.040;5.692;2023-04-09T08:33:57;25.10;90.10
25718;DHT22;13574;52.040;5.692;2023-04-09T08:36:23;25.20;87.80
25718;DHT22;13574;52.040;5.692;2023-04-09T08:38:49;25.00;87.70
25718;DHT22;13574;52.040;5.692;2023-04-09T08:41:25;25.00;87.70
25718;DHT22;13574;52.040;5.692;2023-04-09T08:43:51;23.90;88.50
25718;DHT22;13574;52.040;5.692;2023-04-09T08:46:18;22.90;91.00
25718;DHT22;13574;52.040;5.692;2023-04-09T08:48:44;22.20;91.30
25718;DHT22;13574;52.040;5.692;2023-04-09T08:51:19;21.20;91.10
25718;DHT22;13574;52.040;5.692;2023-04-09T08:53:54;19.80;93.10
25718;DHT22;13574;52.040;5.692;2023-04-09T08:56:21;18.60;95.30
25718;DHT22;13574;52.040;5.692;2023-04-09T08:58:47;18.20;95.90
25718;DHT22;13574;52.040;5.692;2023-04-09T09:01:29;18.20;95.80
25718;DHT22;13574;52.040;5.692;2023-04-09T09:04:04;18.20;95.60
25718;DHT22;13574;52.040;5.692;2023-04-09T09:06:33;17.70;96.90
25718;DHT22;13574;52.040;5.692;2023-04-09T09:09:13;17.80;97.00
25718;DHT22;13574;52.040;5.692;2023-04-09T09:11:47;17.80;96.20
25718;DHT22;13574;52.040;5.692;2023-04-09T09:14:16;18.00;96.70
25718;DHT22;13574;52.040;5.692;2023-04-09T09:16:58;18.20;96.10
25718;DHT22;13574;52.040;5.692;2023-04-09T09:19:29;18.00;96.30
25718;DHT22;13574;52.040;5.692;2023-04-09T09:22:00;17.70;96.40
25718;DHT22;13574;52.040;5.692;2023-04-09T09:24:26;17.30;97.30
25718;DHT22;13574;52.040;5.692;2023-04-09T09:26:52;17.50;97.30
25718;DHT22;13574;52.040;5.692;2023-04-09T09:29:19;17.70;97.00
25718;DHT22;13574;52.040;5.692;2023-04-09T09:31:50;17.90;97.50
25718;DHT22;13574;52.040;5.692;2023-04-09T09:34:17;18.00;97.60
25718;DHT22;13574;52.040;5.692;2023-04-09T09:36:44;18.20;96.20
25718;DHT22;13574;52.040;5.692;2023-04-09T09:39:10;17.80;96.50
25718;DHT22;13574;52.040;5.692;2023-04-09T09:41:38;17.70;97.40
25718;DHT22;13574;52.040;5.692;2023-04-09T09:44:06;17.70;97.60
25718;DHT22;13574;52.040;5.692;2023-04-09T09:46:39;17.90;95.90
25718;DHT22;13574;52.040;5.692;2023-04-09T09:49:07;18.00;97.10
25718;DHT22;13574;52.040;5.692;2023-04-09T09:51:36;18.00;96.90
25718;DHT22;13574;52.040;5.692;2023-04-09T09:54:02;18.20;96.40
25718;DHT22;13574;52.040;5.692;2023-04-09T09:56:34;18.20;96.60
25718;DHT22;13574;52.040;5.692;2023-04-09T09:59:15;18.40;96.50
25718;DHT22;13574;52.040;5.692;2023-04-09T10:01:43;18.70;95.00
25718;DHT22;13574;52.040;5.692;2023-04-09T10:04:13;18.40;95.50
25718;DHT22;13574;52.040;5.692;2023-04-09T10:06:43;18.00;95.80
25718;DHT22;13574;52.040;5.692;2023-04-09T10:09:09;17.80;96.70
25718;DHT22;13574;52.040;5.692;2023-04-09T10:11:37;17.90;95.60
25718;DHT22;13574;52.040;5.692;2023-04-09T10:14:03;17.90;95.80
25718;DHT22;13574;52.040;5.692;2023-04-09T10:16:32;17.90;96.00
25718;DHT22;13574;52.040;5.692;2023-04-09T10:19:00;17.80;96.40
25718;DHT22;13574;52.040;5.692;2023-04-09T10:24:03;18.30;95.00
25718;DHT22;13574;52.040;5.692;2023-04-09T10:26:34;18.10;95.10
25718;DHT22;13574;52.040;5.692;2023-04-09T10:29:08;17.80;96.20
25718;DHT22;13574;52.040;5.692;2023-04-09T10:32:05;17.40;96.20
25718;DHT22;13574;52.040;5.692;2023-04-09T10:34:35;17.50;96.80
25718;DHT22;13574;52.040;5.692;2023-04-09T10:37:01;17.70;96.70
25718;DHT22;13574;52.040;5.692;2023-04-09T10:39:29;17.90;96.70
25718;DHT22;13574;52.040;5.692;2023-04-09T10:41:57;18.10;95.70
25718;DHT22;13574;52.040;5.692;2023-04-09T10:44:27;18.20;95.30
25718;DHT22;13574;52.040;5.692;2023-04-09T10:46:56;18.40;96.10
25718;DHT22;13574;52.040;5.692;2023-04-09T10:49:26;18.60;94.70
25718;DHT22;13574;52.040;5.692;2023-04-09T10:52:05;18.50;95.20
25718;DHT22;13574;52.040;5.692;2023-04-09T10:59:35;18.20;96.30
25718;DHT22;13574;52.040;5.692;2023-04-09T11:02:01;18.60;95.90
25718;DHT22;13574;52.040;5.692;2023-04-09T11:04:55;18.30;94.90
25718;DHT22;13574;52.040;5.692;2023-04-09T11:07:26;17.70;95.50
25718;DHT22;13574;52.040;5.692;2023-04-09T11:09:54;17.90;96.00
25718;DHT22;13574;52.040;5.692;2023-04-09T11:12:19;18.10;95.30
25718;DHT22;13574;52.040;5.692;2023-04-09T11:14:45;18.20;95.60
25718;DHT22;13574;52.040;5.692;2023-04-09T11:17:12;18.40;94.30
25718;DHT22;13574;52.040;5.692;2023-04-09T11:19:37;18.30;95.50
25718;DHT22;13574;52.040;5.692;2023-04-09T11:22:04;18.50;94.80
25718;DHT22;13574;52.040;5.692;2023-04-09T11:24:44;18.80;94.20
25718;DHT22;13574;52.040;5.692;2023-04-09T11:27:11;19.00;94.40
25718;DHT22;13574;52.040;5.692;2023-04-09T11:29:37;19.30;93.60
25718;DHT22;13574;52.040;5.692;2023-04-09T11:32:03;19.50;93.50
25718;DHT22;13574;52.040;5.692;2023-04-09T11:34:32;19.70;93.50
25718;DHT22;13574;52.040;5.692;2023-04-09T11:36:58;19.80;93.00
25718;DHT22;13574;52.040;5.692;2023-04-09T11:39:27;19.80;92.60
25718;DHT22;13574;52.040;5.692;2023-04-09T11:41:53;19.70;93.80
25718;DHT22;13574;52.040;5.692;2023-04-09T11:44:22;19.90;92.20
25718;DHT22;13574;52.040;5.692;2023-04-09T11:46:48;19.50;93.20
25718;DHT22;13574;52.040;5.692;2023-04-09T11:49:15;19.60;93.90
25718;DHT22;13574;52.040;5.692;2023-04-09T11:51:41;19.50;93.20
25718;DHT22;13574;52.040;5.692;2023-04-09T11:54:07;19.60;93.30
25718;DHT22;13574;52.040;5.692;2023-04-09T11:56:34;19.90;93.10
25718;DHT22;13574;52.040;5.692;2023-04-09T11:59:02;20.10;93.50
25718;DHT22;13574;52.040;5.692;2023-04-09T12:01:31;19.90;91.30
25718;DHT22;13574;52.040;5.692;2023-04-09T12:03:58;19.40;93.10
25718;DHT22;13574;52.040;5.692;2023-04-09T12:06:25;19.50;93.30
25718;DHT22;13574;52.040;5.692;2023-04-09T12:08:58;19.50;92.50
25718;DHT22;13574;52.040;5.692;2023-04-09T12:11:30;19.20;92.60
25718;DHT22;13574;52.040;5.692;2023-04-09T12:14:06;19.20;92.30
25718;DHT22;13574;52.040;5.692;2023-04-09T12:16:34;18.90;92.20
25718;DHT22;13574;52.040;5.692;2023-04-09T12:19:06;18.80;91.70
25718;DHT22;13574;52.040;5.692;2023-04-09T12:21:51;18.60;92.60
25718;DHT22;13574;52.040;5.692;2023-04-09T12:24:23;18.60;92.40
25718;DHT22;13574;52.040;5.692;2023-04-09T12:26:49;18.60;91.60
25718;DHT22;13574;52.040;5.692;2023-04-09T12:29:18;18.20;93.20
25718;DHT22;13574;52.040;5.692;2023-04-09T12:31:44;18.30;93.40
25718;DHT22;13574;52.040;5.692;2023-04-09T12:34:10;18.60;91.60
25718;DHT22;13574;52.040;5.692;2023-04-09T12:36:38;18.70;91.00
25718;DHT22;13574;52.040;5.692;2023-04-09T12:39:04;18.60;89.20
25718;DHT22;13574;52.040;5.692;2023-04-09T12:41:30;18.40;91.50
25718;DHT22;13574;52.040;5.692;2023-04-09T12:43:56;18.70;90.20
25718;DHT22;13574;52.040;5.692;2023-04-09T12:46:21;18.70;91.50
25718;DHT22;13574;52.040;5.692;2023-04-09T12:48:47;18.50;90.90
25718;DHT22;13574;52.040;5.692;2023-04-09T12:51:13;18.30;91.60
25718;DHT22;13574;52.040;5.692;2023-04-09T12:53:39;18.50;91.40
25718;DHT22;13574;52.040;5.692;2023-04-09T12:56:05;18.50;91.70
25718;DHT22;13574;52.040;5.692;2023-04-09T12:58:32;18.70;90.70
25718;DHT22;13574;52.040;5.692;2023-04-09T13:00:57;18.80;90.60
25718;DHT22;13574;52.040;5.692;2023-04-09T13:03:24;18.70;90.30
25718;DHT22;13574;52.040;5.692;2023-04-09T13:05:50;18.30;90.60
25718;DHT22;13574;52.040;5.692;2023-04-09T13:08:16;18.10;92.00
25718;DHT22;13574;52.040;5.692;2023-04-09T13:10:42;18.00;93.00
25718;DHT22;13574;52.040;5.692;2023-04-09T13:13:08;18.10;92.30
25718;DHT22;13574;52.040;5.692;2023-04-09T13:15:40;17.90;92.40
25718;DHT22;13574;52.040;5.692;2023-04-09T13:18:08;18.10;93.10
25718;DHT22;13574;52.040;5.692;2023-04-09T13:20:33;18.50;93.50
25718;DHT22;13574;52.040;5.692;2023-04-09T13:22:59;18.70;93.10
25718;DHT22;13574;52.040;5.692;2023-04-09T13:25:25;18.90;92.90
25718;DHT22;13574;52.040;5.692;2023-04-09T13:27:51;18.90;92.70
25718;DHT22;13574;52.040;5.692;2023-04-09T13:30:17;19.10;91.90
25718;DHT22;13574;52.040;5.692;2023-04-09T13:32:43;19.20;92.10
25718;DHT22;13574;52.040;5.692;2023-04-09T13:35:08;19.10;91.70
25718;DHT22;13574;52.040;5.692;2023-04-09T13:37:35;18.70;92.60
25718;DHT22;13574;52.040;5.692;2023-04-09T13:40:00;18.70;92.60
25718;DHT22;13574;52.040;5.692;2023-04-09T13:42:26;18.60;93.80
25718;DHT22;13574;52.040;5.692;2023-04-09T13:44:52;18.90;93.20
25718;DHT22;13574;52.040;5.692;2023-04-09T13:47:18;19.20;93.10
25718;DHT22;13574;52.040;5.692;2023-04-09T13:49:44;19.30;92.50
25718;DHT22;13574;52.040;5.692;2023-04-09T13:52:10;19.60;92.80
25718;DHT22;13574;52.040;5.692;2023-04-09T13:54:36;19.90;92.60
25718;DHT22;13574;52.040;5.692;2023-04-09T13:57:02;20.30;92.60
25718;DHT22;13574;52.040;5.692;2023-04-09T13:59:28;20.60;91.00
25718;DHT22;13574;52.040;5.692;2023-04-09T14:01:54;20.50;91.50
25718;DHT22;13574;52.040;5.692;2023-04-09T14:04:20;20.40;90.80
25718;DHT22;13574;52.040;5.692;2023-04-09T14:06:46;20.20;91.40
25718;DHT22;13574;52.040;5.692;2023-04-09T14:09:12;20.20;91.90
25718;DHT22;13574;52.040;5.692;2023-04-09T14:11:38;20.20;92.00
25718;DHT22;13574;52.040;5.692;2023-04-09T14:14:03;20.30;91.80
25718;DHT22;13574;52.040;5.692;2023-04-09T14:16:29;20.40;91.80
25718;DHT22;13574;52.040;5.692;2023-04-09T14:18:56;20.60;91.50
25718;DHT22;13574;52.040;5.692;2023-04-09T14:21:22;20.70;90.60
25718;DHT22;13574;52.040;5.692;2023-04-09T14:23:48;20.20;91.60
25718;DHT22;13574;52.040;5.692;2023-04-09T14:26:14;19.80;91.40
25718;DHT22;13574;52.040;5.692;2023-04-09T14:28:40;19.90;91.20
25718;DHT22;13574;52.040;5.692;2023-04-09T14:31:06;20.00;91.50
25718;DHT22;13574;52.040;5.692;2023-04-09T14:33:32;20.10;91.10
25718;DHT22;13574;52.040;5.692;2023-04-09T14:35:58;20.50;91.10
25718;DHT22;13574;52.040;5.692;2023-04-09T14:38:23;20.70;91.00
25718;DHT22;13574;52.040;5.692;2023-04-09T14:40:50;20.60;90.50
25718;DHT22;13574;52.040;5.692;2023-04-09T14:43:15;20.30;91.50
25718;DHT22;13574;52.040;5.692;2023-04-09T14:45:41;20.30;90.80
25718;DHT22;13574;52.040;5.692;2023-04-09T14:48:09;20.30;90.90
25718;DHT22;13574;52.040;5.692;2023-04-09T14:50:44;20.00;91.80
25718;DHT22;13574;52.040;5.692;2023-04-09T14:53:09;19.50;91.60
25718;DHT22;13574;52.040;5.692;2023-04-09T14:55:37;18.80;91.80
25718;DHT22;13574;52.040;5.692;2023-04-09T14:58:03;18.50;92.10
25718;DHT22;13574;52.040;5.692;2023-04-09T15:00:31;18.40;92.60
25718;DHT22;13574;52.040;5.692;2023-04-09T15:02:58;18.20;92.30
25718;DHT22;13574;52.040;5.692;2023-04-09T15:05:25;18.40;92.60
25718;DHT22;13574;52.040;5.692;2023-04-09T15:07:51;18.60;92.20
25718;DHT22;13574;52.040;5.692;2023-04-09T15:10:17;18.50;92.60
25718;DHT22;13574;52.040;5.692;2023-04-09T15:12:43;18.50;92.90
25718;DHT22;13574;52.040;5.692;2023-04-09T15:15:09;18.60;92.70
25718;DHT22;13574;52.040;5.692;2023-04-09T15:17:35;18.80;92.80
25718;DHT22;13574;52.040;5.692;2023-04-09T15:20:01;19.20;93.40
25718;DHT22;13574;52.040;5.692;2023-04-09T15:22:28;19.60;93.20
25718;DHT22;13574;52.040;5.692;2023-04-09T15:24:54;19.80;92.40
25718;DHT22;13574;52.040;5.692;2023-04-09T15:27:20;19.80;93.10
25718;DHT22;13574;52.040;5.692;2023-04-09T15:29:45;19.70;91.50
25718;DHT22;13574;52.040;5.692;2023-04-09T15:32:11;19.30;91.60
25718;DHT22;13574;52.040;5.692;2023-04-09T15:34:37;19.40;92.00
25718;DHT22;13574;52.040;5.692;2023-04-09T15:37:02;19.40;92.20
25718;DHT22;13574;52.040;5.692;2023-04-09T15:39:28;19.50;92.20
25718;DHT22;13574;52.040;5.692;2023-04-09T15:41:54;19.70;91.30
25718;DHT22;13574;52.040;5.692;2023-04-09T15:44:22;19.40;91.80
25718;DHT22;13574;52.040;5.692;2023-04-09T15:46:47;19.40;91.70
25718;DHT22;13574;52.040;5.692;2023-04-09T15:49:13;19.10;92.00